Eastmont, South Carolina
Current Conditions -  °F | °C
As of 11:53 AM on Friday 24 Oct 2014 (Local Time) from KCUB Reporting Station
Clear Clear  
Wind Chill: 65°   Ceiling: Unl
Heat Index: 65°   Visibility: 10mi
Dew Point: 44°   Wind: 3mph
Humidity: 47%   Direction: NA
Pressure: 30.08"   Gusts: NA
Location:  33.9488°N, 80.9462°W
Report Text: KCUB 241553Z AUTO VRB03KT 10SM CLR 18/07 A3008 RMK AO2 SLP186 T01830067
Loading
Personal Weather Stations






























Interactive Weather Map
Tropical Storm Tracking
New forecast layout! Learn more

10-Day Weather Forecast

Advertisements
Track Severe Weather on mobile